sensor_id;sensor_type;location;lat;lon;timestamp;P1;durP1;ratioP1;P2;durP2;ratioP2
3549;SDS011;45572;48.804;8.330;2022-07-30T00:02:00;4.63;;;2.80;;
3549;SDS011;45572;48.804;8.330;2022-07-30T00:04:29;4.63;;;3.03;;
3549;SDS011;45572;48.804;8.330;2022-07-30T00:06:57;4.10;;;3.13;;
3549;SDS011;45572;48.804;8.330;2022-07-30T00:09:26;4.40;;;3.50;;
3549;SDS011;45572;48.804;8.330;2022-07-30T00:11:58;5.67;;;3.70;;
3549;SDS011;45572;48.804;8.330;2022-07-30T00:14:27;4.03;;;3.35;;
3549;SDS011;45572;48.804;8.330;2022-07-30T00:16:55;3.50;;;2.97;;
3549;SDS011;45572;48.804;8.330;2022-07-30T00:19:23;3.97;;;3.28;;
3549;SDS011;45572;48.804;8.330;2022-07-30T00:21:53;6.32;;;3.13;;
3549;SDS011;45572;48.804;8.330;2022-07-30T00:24:20;9.48;;;3.40;;
3549;SDS011;45572;48.804;8.330;2022-07-30T00:26:49;4.60;;;3.35;;
3549;SDS011;45572;48.804;8.330;2022-07-30T00:29:17;4.32;;;3.17;;
3549;SDS011;45572;48.804;8.330;2022-07-30T00:31:45;5.60;;;4.70;;
3549;SDS011;45572;48.804;8.330;2022-07-30T00:34:13;6.75;;;4.43;;
3549;SDS011;45572;48.804;8.330;2022-07-30T00:36:40;8.10;;;3.88;;
3549;SDS011;45572;48.804;8.330;2022-07-30T00:39:09;4.90;;;3.88;;
3549;SDS011;45572;48.804;8.330;2022-07-30T00:41:51;7.32;;;3.92;;
3549;SDS011;45572;48.804;8.330;2022-07-30T00:44:20;4.60;;;3.55;;
3549;SDS011;45572;48.804;8.330;2022-07-30T00:46:48;8.75;;;4.05;;
3549;SDS011;45572;48.804;8.330;2022-07-30T00:49:16;5.25;;;4.00;;
3549;SDS011;45572;48.804;8.330;2022-07-30T00:51:44;5.53;;;3.60;;
3549;SDS011;45572;48.804;8.330;2022-07-30T00:54:13;4.43;;;4.03;;
3549;SDS011;45572;48.804;8.330;2022-07-30T00:56:41;4.68;;;4.22;;
3549;SDS011;45572;48.804;8.330;2022-07-30T00:59:09;4.95;;;3.50;;
3549;SDS011;45572;48.804;8.330;2022-07-30T01:01:38;4.82;;;4.38;;
3549;SDS011;45572;48.804;8.330;2022-07-30T01:04:06;5.55;;;4.70;;
3549;SDS011;45572;48.804;8.330;2022-07-30T01:06:36;4.57;;;3.88;;
3549;SDS011;45572;48.804;8.330;2022-07-30T01:09:05;5.95;;;4.22;;
3549;SDS011;45572;48.804;8.330;2022-07-30T01:11:36;6.65;;;3.90;;
3549;SDS011;45572;48.804;8.330;2022-07-30T01:14:05;9.00;;;4.82;;
3549;SDS011;45572;48.804;8.330;2022-07-30T01:16:35;4.40;;;4.00;;
3549;SDS011;45572;48.804;8.330;2022-07-30T01:19:06;7.22;;;4.82;;
3549;SDS011;45572;48.804;8.330;2022-07-30T01:21:56;5.60;;;4.57;;
3549;SDS011;45572;48.804;8.330;2022-07-30T01:24:34;8.10;;;5.47;;
3549;SDS011;45572;48.804;8.330;2022-07-30T01:27:06;5.18;;;4.68;;
3549;SDS011;45572;48.804;8.330;2022-07-30T01:29:36;5.65;;;3.75;;
3549;SDS011;45572;48.804;8.330;2022-07-30T01:32:07;5.68;;;4.30;;
3549;SDS011;45572;48.804;8.330;2022-07-30T01:34:36;6.07;;;4.78;;
3549;SDS011;45572;48.804;8.330;2022-07-30T01:37:06;6.20;;;4.13;;
3549;SDS011;45572;48.804;8.330;2022-07-30T01:39:36;5.18;;;4.53;;
3549;SDS011;45572;48.804;8.330;2022-07-30T01:42:06;7.50;;;4.50;;
3549;SDS011;45572;48.804;8.330;2022-07-30T01:44:35;5.85;;;3.85;;
3549;SDS011;45572;48.804;8.330;2022-07-30T01:47:05;4.38;;;3.97;;
3549;SDS011;45572;48.804;8.330;2022-07-30T01:49:36;7.00;;;5.00;;
3549;SDS011;45572;48.804;8.330;2022-07-30T01:52:06;5.55;;;4.43;;
3549;SDS011;45572;48.804;8.330;2022-07-30T01:54:36;7.00;;;4.78;;
3549;SDS011;45572;48.804;8.330;2022-07-30T01:57:06;6.50;;;4.40;;
3549;SDS011;45572;48.804;8.330;2022-07-30T01:59:35;6.93;;;4.72;;
3549;SDS011;45572;48.804;8.330;2022-07-30T02:02:06;5.88;;;4.90;;
3549;SDS011;45572;48.804;8.330;2022-07-30T02:04:35;6.70;;;5.63;;
3549;SDS011;45572;48.804;8.330;2022-07-30T02:07:05;7.78;;;5.40;;
3549;SDS011;45572;48.804;8.330;2022-07-30T02:09:40;6.15;;;5.03;;
3549;SDS011;45572;48.804;8.330;2022-07-30T02:12:14;7.38;;;5.60;;
3549;SDS011;45572;48.804;8.330;2022-07-30T02:15:07;5.70;;;4.85;;
3549;SDS011;45572;48.804;8.330;2022-07-30T02:17:40;6.25;;;5.07;;
3549;SDS011;45572;48.804;8.330;2022-07-30T02:20:12;6.53;;;5.20;;
3549;SDS011;45572;48.804;8.330;2022-07-30T02:22:44;5.68;;;5.13;;
3549;SDS011;45572;48.804;8.330;2022-07-30T02:25:14;5.30;;;4.80;;
3549;SDS011;45572;48.804;8.330;2022-07-30T02:27:47;9.95;;;5.20;;
3549;SDS011;45572;48.804;8.330;2022-07-30T02:30:24;6.50;;;4.78;;
3549;SDS011;45572;48.804;8.330;2022-07-30T02:32:59;9.27;;;4.93;;
3549;SDS011;45572;48.804;8.330;2022-07-30T02:35:29;6.32;;;5.40;;
3549;SDS011;45572;48.804;8.330;2022-07-30T02:37:59;5.38;;;4.88;;
3549;SDS011;45572;48.804;8.330;2022-07-30T02:40:29;10.07;;;6.28;;
3549;SDS011;45572;48.804;8.330;2022-07-30T02:42:59;5.80;;;5.20;;
3549;SDS011;45572;48.804;8.330;2022-07-30T02:45:28;6.90;;;5.20;;
3549;SDS011;45572;48.804;8.330;2022-07-30T02:47:58;5.85;;;4.65;;
3549;SDS011;45572;48.804;8.330;2022-07-30T02:50:28;6.75;;;5.13;;
3549;SDS011;45572;48.804;8.330;2022-07-30T02:52:58;5.80;;;5.07;;
3549;SDS011;45572;48.804;8.330;2022-07-30T02:55:28;7.68;;;4.28;;
3549;SDS011;45572;48.804;8.330;2022-07-30T02:58:01;5.35;;;4.70;;
3549;SDS011;45572;48.804;8.330;2022-07-30T03:00:31;8.13;;;5.03;;
3549;SDS011;45572;48.804;8.330;2022-07-30T03:03:00;9.80;;;6.03;;
3549;SDS011;45572;48.804;8.330;2022-07-30T03:05:30;5.32;;;4.80;;
3549;SDS011;45572;48.804;8.330;2022-07-30T03:07:59;7.70;;;6.93;;
3549;SDS011;45572;48.804;8.330;2022-07-30T03:10:28;5.43;;;4.75;;
3549;SDS011;45572;48.804;8.330;2022-07-30T03:12:58;7.07;;;4.45;;
3549;SDS011;45572;48.804;8.330;2022-07-30T03:15:28;8.43;;;5.15;;
3549;SDS011;45572;48.804;8.330;2022-07-30T03:17:56;6.40;;;5.07;;
3549;SDS011;45572;48.804;8.330;2022-07-30T03:20:26;5.28;;;4.65;;
3549;SDS011;45572;48.804;8.330;2022-07-30T03:22:57;7.63;;;5.20;;
3549;SDS011;45572;48.804;8.330;2022-07-30T03:25:28;8.90;;;5.68;;
3549;SDS011;45572;48.804;8.330;2022-07-30T03:27:58;5.97;;;5.47;;
3549;SDS011;45572;48.804;8.330;2022-07-30T03:30:30;7.75;;;5.15;;
3549;SDS011;45572;48.804;8.330;2022-07-30T03:33:00;9.15;;;4.57;;
3549;SDS011;45572;48.804;8.330;2022-07-30T03:35:29;7.78;;;5.25;;
3549;SDS011;45572;48.804;8.330;2022-07-30T03:37:58;7.20;;;4.45;;
3549;SDS011;45572;48.804;8.330;2022-07-30T03:40:27;7.18;;;5.90;;
3549;SDS011;45572;48.804;8.330;2022-07-30T03:42:57;6.55;;;5.60;;
3549;SDS011;45572;48.804;8.330;2022-07-30T03:45:25;8.30;;;5.72;;
3549;SDS011;45572;48.804;8.330;2022-07-30T03:48:02;8.27;;;5.05;;
3549;SDS011;45572;48.804;8.330;2022-07-30T03:50:33;5.78;;;4.90;;
3549;SDS011;45572;48.804;8.330;2022-07-30T03:53:03;8.30;;;4.70;;
3549;SDS011;45572;48.804;8.330;2022-07-30T03:55:48;7.07;;;5.65;;
3549;SDS011;45572;48.804;8.330;2022-07-30T03:58:36;8.18;;;4.10;;
3549;SDS011;45572;48.804;8.330;2022-07-30T04:01:05;7.65;;;5.60;;
3549;SDS011;45572;48.804;8.330;2022-07-30T04:03:35;9.65;;;5.55;;
3549;SDS011;45572;48.804;8.330;2022-07-30T04:06:05;9.55;;;5.80;;
3549;SDS011;45572;48.804;8.330;2022-07-30T04:08:33;7.95;;;4.50;;
3549;SDS011;45572;48.804;8.330;2022-07-30T04:11:01;7.53;;;4.93;;
3549;SDS011;45572;48.804;8.330;2022-07-30T04:13:49;6.15;;;5.10;;
3549;SDS011;45572;48.804;8.330;2022-07-30T04:16:22;8.00;;;5.40;;
3549;SDS011;45572;48.804;8.330;2022-07-30T04:19:11;7.50;;;4.68;;
3549;SDS011;45572;48.804;8.330;2022-07-30T04:21:44;7.38;;;5.35;;
3549;SDS011;45572;48.804;8.330;2022-07-30T04:24:14;6.97;;;5.18;;
3549;SDS011;45572;48.804;8.330;2022-07-30T04:26:43;9.52;;;5.60;;
3549;SDS011;45572;48.804;8.330;2022-07-30T04:29:13;7.88;;;5.75;;
3549;SDS011;45572;48.804;8.330;2022-07-30T04:31:50;6.55;;;5.20;;
3549;SDS011;45572;48.804;8.330;2022-07-30T04:34:45;8.15;;;5.55;;
3549;SDS011;45572;48.804;8.330;2022-07-30T04:37:18;8.90;;;5.80;;
3549;SDS011;45572;48.804;8.330;2022-07-30T04:39:48;7.47;;;4.82;;
3549;SDS011;45572;48.804;8.330;2022-07-30T04:42:20;4.93;;;4.53;;
3549;SDS011;45572;48.804;8.330;2022-07-30T04:44:58;5.15;;;4.57;;
3549;SDS011;45572;48.804;8.330;2022-07-30T04:47:32;6.97;;;5.30;;
3549;SDS011;45572;48.804;8.330;2022-07-30T04:50:22;6.63;;;5.45;;
3549;SDS011;45572;48.804;8.330;2022-07-30T04:52:52;10.80;;;5.68;;
3549;SDS011;45572;48.804;8.330;2022-07-30T04:55:27;8.80;;;5.30;;
3549;SDS011;45572;48.804;8.330;2022-07-30T04:57:56;9.60;;;5.70;;
3549;SDS011;45572;48.804;8.330;2022-07-30T05:00:30;12.48;;;5.40;;
3549;SDS011;45572;48.804;8.330;2022-07-30T05:03:07;8.38;;;5.13;;
3549;SDS011;45572;48.804;8.330;2022-07-30T05:05:43;5.70;;;5.20;;
3549;SDS011;45572;48.804;8.330;2022-07-30T05:08:13;6.78;;;4.93;;
3549;SDS011;45572;48.804;8.330;2022-07-30T05:10:42;7.25;;;6.55;;
3549;SDS011;45572;48.804;8.330;2022-07-30T05:13:12;5.82;;;4.70;;
3549;SDS011;45572;48.804;8.330;2022-07-30T05:15:41;6.43;;;5.28;;
3549;SDS011;45572;48.804;8.330;2022-07-30T05:18:12;9.98;;;5.32;;
3549;SDS011;45572;48.804;8.330;2022-07-30T05:20:42;6.53;;;5.45;;
3549;SDS011;45572;48.804;8.330;2022-07-30T05:23:18;10.30;;;5.72;;
3549;SDS011;45572;48.804;8.330;2022-07-30T05:26:02;6.53;;;5.30;;
3549;SDS011;45572;48.804;8.330;2022-07-30T05:28:39;7.47;;;5.13;;
3549;SDS011;45572;48.804;8.330;2022-07-30T05:31:11;5.53;;;4.32;;
3549;SDS011;45572;48.804;8.330;2022-07-30T05:33:46;6.68;;;4.90;;
3549;SDS011;45572;48.804;8.330;2022-07-30T05:36:18;11.52;;;4.47;;
3549;SDS011;45572;48.804;8.330;2022-07-30T05:38:46;6.68;;;4.35;;
3549;SDS011;45572;48.804;8.330;2022-07-30T05:41:28;5.50;;;4.75;;
3549;SDS011;45572;48.804;8.330;2022-07-30T05:44:04;6.22;;;5.10;;
3549;SDS011;45572;48.804;8.330;2022-07-30T05:46:32;6.50;;;4.82;;
3549;SDS011;45572;48.804;8.330;2022-07-30T05:49:00;5.20;;;4.17;;
3549;SDS011;45572;48.804;8.330;2022-07-30T05:51:29;6.50;;;4.53;;
3549;SDS011;45572;48.804;8.330;2022-07-30T05:53:57;5.63;;;4.60;;
3549;SDS011;45572;48.804;8.330;2022-07-30T05:56:44;6.10;;;4.80;;
3549;SDS011;45572;48.804;8.330;2022-07-30T05:59:16;6.87;;;4.03;;
3549;SDS011;45572;48.804;8.330;2022-07-30T06:02:03;7.60;;;4.40;;
3549;SDS011;45572;48.804;8.330;2022-07-30T06:04:51;5.90;;;4.27;;
3549;SDS011;45572;48.804;8.330;2022-07-30T06:07:22;5.60;;;4.20;;
3549;SDS011;45572;48.804;8.330;2022-07-30T06:09:52;4.00;;;3.40;;
3549;SDS011;45572;48.804;8.330;2022-07-30T06:12:25;6.40;;;4.10;;
3549;SDS011;45572;48.804;8.330;2022-07-30T06:14:54;5.80;;;3.10;;
3549;SDS011;45572;48.804;8.330;2022-07-30T06:17:27;4.50;;;3.80;;
3549;SDS011;45572;48.804;8.330;2022-07-30T06:20:05;5.43;;;3.07;;
3549;SDS011;45572;48.804;8.330;2022-07-30T06:22:48;7.37;;;3.30;;
3549;SDS011;45572;48.804;8.330;2022-07-30T06:25:23;7.30;;;3.30;;
3549;SDS011;45572;48.804;8.330;2022-07-30T06:27:51;6.13;;;4.03;;
3549;SDS011;45572;48.804;8.330;2022-07-30T06:30:19;6.70;;;3.10;;
3549;SDS011;45572;48.804;8.330;2022-07-30T06:32:58;4.07;;;2.67;;
3549;SDS011;45572;48.804;8.330;2022-07-30T06:35:26;6.40;;;2.80;;
3549;SDS011;45572;48.804;8.330;2022-07-30T06:37:55;9.33;;;3.00;;
3549;SDS011;45572;48.804;8.330;2022-07-30T06:40:38;4.00;;;2.20;;
3549;SDS011;45572;48.804;8.330;2022-07-30T06:43:14;3.67;;;2.60;;
3549;SDS011;45572;48.804;8.330;2022-07-30T06:45:54;3.33;;;2.40;;
3549;SDS011;45572;48.804;8.330;2022-07-30T06:48:29;2.63;;;2.37;;
3549;SDS011;45572;48.804;8.330;2022-07-30T06:51:00;3.03;;;2.53;;
3549;SDS011;45572;48.804;8.330;2022-07-30T06:53:29;2.97;;;2.37;;
3549;SDS011;45572;48.804;8.330;2022-07-30T06:56:21;2.40;;;2.10;;
3549;SDS011;45572;48.804;8.330;2022-07-30T06:58:56;5.83;;;2.30;;
3549;SDS011;45572;48.804;8.330;2022-07-30T07:01:44;7.80;;;2.13;;
3549;SDS011;45572;48.804;8.330;2022-07-30T07:04:13;2.03;;;1.80;;
3549;SDS011;45572;48.804;8.330;2022-07-30T07:06:41;2.63;;;2.00;;
3549;SDS011;45572;48.804;8.330;2022-07-30T07:09:15;3.73;;;2.13;;
3549;SDS011;45572;48.804;8.330;2022-07-30T07:11:51;2.77;;;2.10;;
3549;SDS011;45572;48.804;8.330;2022-07-30T07:14:18;2.53;;;2.30;;
3549;SDS011;45572;48.804;8.330;2022-07-30T07:16:46;6.03;;;1.90;;
3549;SDS011;45572;48.804;8.330;2022-07-30T07:19:34;4.60;;;2.10;;
3549;SDS011;45572;48.804;8.330;2022-07-30T07:22:24;2.87;;;2.10;;
3549;SDS011;45572;48.804;8.330;2022-07-30T07:24:53;2.30;;;1.87;;
3549;SDS011;45572;48.804;8.330;2022-07-30T07:27:25;3.20;;;2.57;;
3549;SDS011;45572;48.804;8.330;2022-07-30T07:29:56;9.90;;;2.60;;
3549;SDS011;45572;48.804;8.330;2022-07-30T07:32:30;4.50;;;1.90;;
3549;SDS011;45572;48.804;8.330;2022-07-30T07:34:58;3.70;;;2.57;;
3549;SDS011;45572;48.804;8.330;2022-07-30T07:37:25;3.13;;;2.20;;
3549;SDS011;45572;48.804;8.330;2022-07-30T07:39:55;5.00;;;1.83;;
3549;SDS011;45572;48.804;8.330;2022-07-30T07:42:24;2.70;;;2.40;;
3549;SDS011;45572;48.804;8.330;2022-07-30T07:44:52;4.30;;;2.03;;
3549;SDS011;45572;48.804;8.330;2022-07-30T07:47:20;3.77;;;2.27;;
3549;SDS011;45572;48.804;8.330;2022-07-30T07:50:08;4.60;;;1.70;;
3549;SDS011;45572;48.804;8.330;2022-07-30T07:52:36;2.97;;;1.73;;
3549;SDS011;45572;48.804;8.330;2022-07-30T07:55:06;6.93;;;1.80;;
3549;SDS011;45572;48.804;8.330;2022-07-30T07:57:37;4.13;;;2.17;;
3549;SDS011;45572;48.804;8.330;2022-07-30T08:00:06;4.47;;;2.10;;
3549;SDS011;45572;48.804;8.330;2022-07-30T08:02:47;2.83;;;1.93;;
3549;SDS011;45572;48.804;8.330;2022-07-30T08:05:17;7.40;;;2.00;;
3549;SDS011;45572;48.804;8.330;2022-07-30T08:07:50;6.20;;;2.00;;
3549;SDS011;45572;48.804;8.330;2022-07-30T08:10:39;3.40;;;1.67;;
3549;SDS011;45572;48.804;8.330;2022-07-30T08:13:27;4.07;;;1.80;;
3549;SDS011;45572;48.804;8.330;2022-07-30T08:16:35;5.97;;;1.80;;
3549;SDS011;45572;48.804;8.330;2022-07-30T08:19:23;5.73;;;2.00;;
3549;SDS011;45572;48.804;8.330;2022-07-30T08:22:09;6.40;;;1.70;;
3549;SDS011;45572;48.804;8.330;2022-07-30T08:24:38;4.03;;;1.83;;
3549;SDS011;45572;48.804;8.330;2022-07-30T08:27:07;5.13;;;2.13;;
3549;SDS011;45572;48.804;8.330;2022-07-30T08:29:35;3.43;;;1.97;;
3549;SDS011;45572;48.804;8.330;2022-07-30T08:32:03;4.13;;;2.13;;
3549;SDS011;45572;48.804;8.330;2022-07-30T08:34:35;3.63;;;2.30;;
3549;SDS011;45572;48.804;8.330;2022-07-30T08:37:03;3.33;;;1.97;;
3549;SDS011;45572;48.804;8.330;2022-07-30T08:39:32;3.33;;;1.23;;
3549;SDS011;45572;48.804;8.330;2022-07-30T08:42:00;1.40;;;1.30;;
3549;SDS011;45572;48.804;8.330;2022-07-30T08:44:32;2.20;;;1.40;;
3549;SDS011;45572;48.804;8.330;2022-07-30T08:47:03;3.37;;;2.13;;
3549;SDS011;45572;48.804;8.330;2022-07-30T08:49:53;1.67;;;1.10;;
3549;SDS011;45572;48.804;8.330;2022-07-30T08:52:28;1.80;;;1.47;;
3549;SDS011;45572;48.804;8.330;2022-07-30T08:54:59;1.70;;;1.30;;
3549;SDS011;45572;48.804;8.330;2022-07-30T08:57:27;3.40;;;1.47;;
3549;SDS011;45572;48.804;8.330;2022-07-30T08:59:58;2.30;;;1.37;;
3549;SDS011;45572;48.804;8.330;2022-07-30T09:02:29;2.57;;;1.20;;
3549;SDS011;45572;48.804;8.330;2022-07-30T09:05:01;2.40;;;1.40;;
3549;SDS011;45572;48.804;8.330;2022-07-30T09:07:30;4.60;;;2.00;;
3549;SDS011;45572;48.804;8.330;2022-07-30T09:10:00;1.60;;;1.10;;
3549;SDS011;45572;48.804;8.330;2022-07-30T09:12:31;2.83;;;1.13;;
3549;SDS011;45572;48.804;8.330;2022-07-30T09:15:04;6.03;;;1.33;;
3549;SDS011;45572;48.804;8.330;2022-07-30T09:17:44;3.07;;;1.23;;
3549;SDS011;45572;48.804;8.330;2022-07-30T09:20:15;1.80;;;1.00;;
3549;SDS011;45572;48.804;8.330;2022-07-30T09:22:45;1.67;;;1.10;;
3549;SDS011;45572;48.804;8.330;2022-07-30T09:25:35;8.13;;;1.90;;
3549;SDS011;45572;48.804;8.330;2022-07-30T09:28:28;2.07;;;1.40;;
3549;SDS011;45572;48.804;8.330;2022-07-30T09:31:18;19.53;;;2.47;;
3549;SDS011;45572;48.804;8.330;2022-07-30T09:34:21;1.10;;;0.93;;
3549;SDS011;45572;48.804;8.330;2022-07-30T09:37:16;3.50;;;1.70;;
3549;SDS011;45572;48.804;8.330;2022-07-30T09:40:10;2.00;;;1.43;;
3549;SDS011;45572;48.804;8.330;2022-07-30T09:43:03;2.80;;;1.17;;
3549;SDS011;45572;48.804;8.330;2022-07-30T09:45:35;1.57;;;0.97;;
3549;SDS011;45572;48.804;8.330;2022-07-30T09:48:25;3.90;;;1.60;;
3549;SDS011;45572;48.804;8.330;2022-07-30T09:50:54;3.50;;;1.73;;
3549;SDS011;45572;48.804;8.330;2022-07-30T09:53:23;3.20;;;1.30;;
3549;SDS011;45572;48.804;8.330;2022-07-30T09:55:51;4.67;;;1.30;;
3549;SDS011;45572;48.804;8.330;2022-07-30T09:58:20;1.47;;;1.10;;
3549;SDS011;45572;48.804;8.330;2022-07-30T10:00:55;4.63;;;1.03;;
3549;SDS011;45572;48.804;8.330;2022-07-30T10:03:45;7.17;;;1.73;;
3549;SDS011;45572;48.804;8.330;2022-07-30T10:06:34;2.13;;;1.07;;
3549;SDS011;45572;48.804;8.330;2022-07-30T10:09:23;3.97;;;1.57;;
3549;SDS011;45572;48.804;8.330;2022-07-30T10:11:53;3.00;;;1.27;;
3549;SDS011;45572;48.804;8.330;2022-07-30T10:14:27;1.43;;;1.00;;
3549;SDS011;45572;48.804;8.330;2022-07-30T10:16:59;4.00;;;1.43;;
3549;SDS011;45572;48.804;8.330;2022-07-30T10:19:33;3.43;;;1.37;;
3549;SDS011;45572;48.804;8.330;2022-07-30T10:22:27;5.00;;;1.13;;
3549;SDS011;45572;48.804;8.330;2022-07-30T10:25:16;6.20;;;1.50;;
3549;SDS011;45572;48.804;8.330;2022-07-30T10:28:08;5.23;;;1.77;;
3549;SDS011;45572;48.804;8.330;2022-07-30T10:30:38;3.13;;;1.40;;
3549;SDS011;45572;48.804;8.330;2022-07-30T10:33:07;10.10;;;2.03;;
3549;SDS011;45572;48.804;8.330;2022-07-30T10:35:57;7.93;;;1.40;;
3549;SDS011;45572;48.804;8.330;2022-07-30T10:38:29;3.00;;;1.33;;
3549;SDS011;45572;48.804;8.330;2022-07-30T10:41:04;2.33;;;1.20;;
3549;SDS011;45572;48.804;8.330;2022-07-30T10:43:46;3.20;;;0.90;;
3549;SDS011;45572;48.804;8.330;2022-07-30T10:46:28;1.97;;;1.17;;
3549;SDS011;45572;48.804;8.330;2022-07-30T10:49:08;1.23;;;1.00;;
3549;SDS011;45572;48.804;8.330;2022-07-30T10:51:47;5.30;;;1.47;;
3549;SDS011;45572;48.804;8.330;2022-07-30T10:57:06;6.00;;;1.73;;
3549;SDS011;45572;48.804;8.330;2022-07-30T11:02:37;4.50;;;1.30;;
3549;SDS011;45572;48.804;8.330;2022-07-30T11:11:02;1.93;;;1.37;;
3549;SDS011;45572;48.804;8.330;2022-07-30T11:13:47;2.93;;;1.70;;
3549;SDS011;45572;48.804;8.330;2022-07-30T11:16:19;12.30;;;3.37;;
3549;SDS011;45572;48.804;8.330;2022-07-30T11:19:00;12.47;;;2.27;;
3549;SDS011;45572;48.804;8.330;2022-07-30T11:24:50;1.20;;;1.10;;
3549;SDS011;45572;48.804;8.330;2022-07-30T11:36:06;4.47;;;1.60;;
3549;SDS011;45572;48.804;8.330;2022-07-30T11:41:22;2.77;;;1.40;;
3549;SDS011;45572;48.804;8.330;2022-07-30T11:46:48;3.60;;;1.53;;
3549;SDS011;45572;48.804;8.330;2022-07-30T11:49:17;4.67;;;1.43;;
3549;SDS011;45572;48.804;8.330;2022-07-30T11:51:46;2.63;;;1.10;;
3549;SDS011;45572;48.804;8.330;2022-07-30T11:54:14;1.63;;;1.20;;
3549;SDS011;45572;48.804;8.330;2022-07-30T11:56:51;1.60;;;1.30;;
3549;SDS011;45572;48.804;8.330;2022-07-30T11:59:20;3.53;;;1.20;;
3549;SDS011;45572;48.804;8.330;2022-07-30T12:01:49;2.60;;;1.10;;
3549;SDS011;45572;48.804;8.330;2022-07-30T12:04:17;1.87;;;1.40;;
3549;SDS011;45572;48.804;8.330;2022-07-30T12:06:46;2.93;;;1.53;;
3549;SDS011;45572;48.804;8.330;2022-07-30T12:09:20;1.90;;;1.43;;
3549;SDS011;45572;48.804;8.330;2022-07-30T12:11:54;2.53;;;1.67;;
3549;SDS011;45572;48.804;8.330;2022-07-30T12:14:22;4.03;;;1.50;;
3549;SDS011;45572;48.804;8.330;2022-07-30T12:16:51;2.13;;;1.57;;
3549;SDS011;45572;48.804;8.330;2022-07-30T12:19:20;4.20;;;1.50;;
3549;SDS011;45572;48.804;8.330;2022-07-30T12:21:48;1.83;;;1.63;;
3549;SDS011;45572;48.804;8.330;2022-07-30T12:24:23;2.53;;;1.20;;
3549;SDS011;45572;48.804;8.330;2022-07-30T12:26:51;2.07;;;1.57;;
3549;SDS011;45572;48.804;8.330;2022-07-30T12:29:31;3.33;;;1.33;;
3549;SDS011;45572;48.804;8.330;2022-07-30T12:32:00;5.20;;;1.77;;
3549;SDS011;45572;48.804;8.330;2022-07-30T12:34:29;5.37;;;1.00;;
3549;SDS011;45572;48.804;8.330;2022-07-30T12:37:05;2.07;;;1.27;;
3549;SDS011;45572;48.804;8.330;2022-07-30T12:39:33;3.00;;;1.20;;
3549;SDS011;45572;48.804;8.330;2022-07-30T12:42:02;2.57;;;1.00;;
3549;SDS011;45572;48.804;8.330;2022-07-30T12:44:34;5.20;;;1.43;;
3549;SDS011;45572;48.804;8.330;2022-07-30T12:47:04;1.87;;;1.30;;
3549;SDS011;45572;48.804;8.330;2022-07-30T12:49:43;5.67;;;1.30;;
3549;SDS011;45572;48.804;8.330;2022-07-30T12:52:19;1.97;;;1.30;;
3549;SDS011;45572;48.804;8.330;2022-07-30T12:54:56;4.13;;;1.00;;
3549;SDS011;45572;48.804;8.330;2022-07-30T12:57:27;3.37;;;1.33;;
3549;SDS011;45572;48.804;8.330;2022-07-30T13:00:03;3.27;;;1.73;;
3549;SDS011;45572;48.804;8.330;2022-07-30T13:02:33;34.73;;;6.10;;
3549;SDS011;45572;48.804;8.330;2022-07-30T13:05:01;5.07;;;1.73;;
3549;SDS011;45572;48.804;8.330;2022-07-30T13:07:50;6.60;;;1.30;;
3549;SDS011;45572;48.804;8.330;2022-07-30T13:10:19;5.63;;;1.50;;
3549;SDS011;45572;48.804;8.330;2022-07-30T13:12:52;3.23;;;2.03;;
3549;SDS011;45572;48.804;8.330;2022-07-30T13:15:21;3.30;;;1.60;;
3549;SDS011;45572;48.804;8.330;2022-07-30T13:17:49;3.80;;;1.50;;
3549;SDS011;45572;48.804;8.330;2022-07-30T13:20:17;2.90;;;1.50;;
3549;SDS011;45572;48.804;8.330;2022-07-30T13:22:47;3.77;;;1.37;;
3549;SDS011;45572;48.804;8.330;2022-07-30T13:25:15;1.60;;;1.00;;
3549;SDS011;45572;48.804;8.330;2022-07-30T13:27:43;2.03;;;1.00;;
3549;SDS011;45572;48.804;8.330;2022-07-30T13:30:12;2.17;;;1.20;;
3549;SDS011;45572;48.804;8.330;2022-07-30T13:32:40;2.30;;;1.40;;
3549;SDS011;45572;48.804;8.330;2022-07-30T13:35:08;1.20;;;1.00;;
3549;SDS011;45572;48.804;8.330;2022-07-30T13:37:36;10.93;;;2.37;;
3549;SDS011;45572;48.804;8.330;2022-07-30T13:40:04;1.70;;;1.30;;
3549;SDS011;45572;48.804;8.330;2022-07-30T13:42:32;7.40;;;1.40;;
3549;SDS011;45572;48.804;8.330;2022-07-30T13:45:00;1.23;;;0.93;;
3549;SDS011;45572;48.804;8.330;2022-07-30T13:47:30;1.60;;;1.00;;
3549;SDS011;45572;48.804;8.330;2022-07-30T13:49:58;3.83;;;1.13;;
3549;SDS011;45572;48.804;8.330;2022-07-30T13:52:25;2.07;;;1.07;;
3549;SDS011;45572;48.804;8.330;2022-07-30T13:54:53;2.00;;;1.07;;
3549;SDS011;45572;48.804;8.330;2022-07-30T13:57:21;1.73;;;1.30;;
3549;SDS011;45572;48.804;8.330;2022-07-30T13:59:49;3.07;;;1.30;;
3549;SDS011;45572;48.804;8.330;2022-07-30T14:02:17;1.50;;;1.10;;
3549;SDS011;45572;48.804;8.330;2022-07-30T14:04:47;1.87;;;1.30;;
3549;SDS011;45572;48.804;8.330;2022-07-30T14:07:14;1.97;;;1.20;;
3549;SDS011;45572;48.804;8.330;2022-07-30T14:09:42;5.23;;;1.10;;
3549;SDS011;45572;48.804;8.330;2022-07-30T14:12:14;2.17;;;1.07;;
3549;SDS011;45572;48.804;8.330;2022-07-30T14:14:42;3.03;;;1.07;;
3549;SDS011;45572;48.804;8.330;2022-07-30T14:17:10;4.60;;;1.40;;
3549;SDS011;45572;48.804;8.330;2022-07-30T14:19:37;1.17;;;0.90;;
3549;SDS011;45572;48.804;8.330;2022-07-30T14:22:07;2.00;;;1.17;;
3549;SDS011;45572;48.804;8.330;2022-07-30T14:24:34;1.90;;;1.00;;
3549;SDS011;45572;48.804;8.330;2022-07-30T14:27:03;9.10;;;1.33;;
3549;SDS011;45572;48.804;8.330;2022-07-30T14:29:31;1.60;;;0.97;;
3549;SDS011;45572;48.804;8.330;2022-07-30T14:31:59;10.90;;;1.10;;
3549;SDS011;45572;48.804;8.330;2022-07-30T14:34:27;1.70;;;0.80;;
3549;SDS011;45572;48.804;8.330;2022-07-30T14:36:55;1.73;;;0.90;;
3549;SDS011;45572;48.804;8.330;2022-07-30T14:39:24;1.10;;;0.90;;
3549;SDS011;45572;48.804;8.330;2022-07-30T14:41:52;1.60;;;0.80;;
3549;SDS011;45572;48.804;8.330;2022-07-30T14:44:21;1.90;;;1.07;;
3549;SDS011;45572;48.804;8.330;2022-07-30T14:46:49;4.27;;;1.10;;
3549;SDS011;45572;48.804;8.330;2022-07-30T14:49:18;1.67;;;0.90;;
3549;SDS011;45572;48.804;8.330;2022-07-30T14:51:48;1.73;;;0.77;;
3549;SDS011;45572;48.804;8.330;2022-07-30T14:54:16;4.70;;;1.10;;
3549;SDS011;45572;48.804;8.330;2022-07-30T14:56:45;5.07;;;1.10;;
3549;SDS011;45572;48.804;8.330;2022-07-30T14:59:13;1.37;;;0.90;;
3549;SDS011;45572;48.804;8.330;2022-07-30T15:01:41;1.53;;;0.93;;
3549;SDS011;45572;48.804;8.330;2022-07-30T15:04:09;5.23;;;1.13;;
3549;SDS011;45572;48.804;8.330;2022-07-30T15:06:37;4.90;;;1.10;;
3549;SDS011;45572;48.804;8.330;2022-07-30T15:09:06;5.83;;;1.30;;
3549;SDS011;45572;48.804;8.330;2022-07-30T15:11:35;4.27;;;0.90;;
3549;SDS011;45572;48.804;8.330;2022-07-30T15:14:24;1.67;;;0.80;;
3549;SDS011;45572;48.804;8.330;2022-07-30T15:16:53;1.17;;;1.00;;
3549;SDS011;45572;48.804;8.330;2022-07-30T15:19:29;5.50;;;1.37;;
3549;SDS011;45572;48.804;8.330;2022-07-30T15:21:56;4.43;;;1.23;;
3549;SDS011;45572;48.804;8.330;2022-07-30T15:24:27;6.63;;;1.03;;
3549;SDS011;45572;48.804;8.330;2022-07-30T15:26:56;40.63;;;4.57;;
3549;SDS011;45572;48.804;8.330;2022-07-30T15:29:25;44.00;;;4.73;;
3549;SDS011;45572;48.804;8.330;2022-07-30T15:31:55;3.73;;;1.60;;
3549;SDS011;45572;48.804;8.330;2022-07-30T15:34:25;4.50;;;0.90;;
3549;SDS011;45572;48.804;8.330;2022-07-30T15:36:53;2.00;;;1.00;;
3549;SDS011;45572;48.804;8.330;2022-07-30T15:39:21;6.60;;;1.00;;
3549;SDS011;45572;48.804;8.330;2022-07-30T15:41:48;1.50;;;0.97;;
3549;SDS011;45572;48.804;8.330;2022-07-30T15:44:19;2.60;;;1.20;;
3549;SDS011;45572;48.804;8.330;2022-07-30T15:46:48;3.33;;;1.20;;
3549;SDS011;45572;48.804;8.330;2022-07-30T15:49:16;4.00;;;1.27;;
3549;SDS011;45572;48.804;8.330;2022-07-30T15:51:44;1.73;;;1.00;;
3549;SDS011;45572;48.804;8.330;2022-07-30T15:54:13;2.70;;;0.80;;
3549;SDS011;45572;48.804;8.330;2022-07-30T15:56:48;3.33;;;1.00;;
3549;SDS011;45572;48.804;8.330;2022-07-30T15:59:16;1.60;;;1.03;;
3549;SDS011;45572;48.804;8.330;2022-07-30T16:01:44;1.27;;;0.67;;
3549;SDS011;45572;48.804;8.330;2022-07-30T16:04:13;1.73;;;1.10;;